sensor_id;sensor_type;location;lat;lon;timestamp;pressure;altitude;pressure_sealevel;temperature;humidity
10652;BME280;5374;42.742;23.266;2023-04-01T00:00:59;94578.63;;;10.85;67.49
10652;BME280;5374;42.742;23.266;2023-04-01T00:03:49;94588.41;;;11.00;67.38
10652;BME280;5374;42.742;23.266;2023-04-01T00:06:36;94591.84;;;11.00;67.06
10652;BME280;5374;42.742;23.266;2023-04-01T00:09:23;94591.56;;;11.07;67.39
10652;BME280;5374;42.742;23.266;2023-04-01T00:12:10;94602.75;;;11.04;67.66
10652;BME280;5374;42.742;23.266;2023-04-01T00:14:57;94591.03;;;11.05;67.91
10652;BME280;5374;42.742;23.266;2023-04-01T00:17:45;94591.06;;;11.00;68.48
10652;BME280;5374;42.742;23.266;2023-04-01T00:20:33;94580.44;;;11.00;67.96
10652;BME280;5374;42.742;23.266;2023-04-01T00:23:20;94574.59;;;11.03;68.02
10652;BME280;5374;42.742;23.266;2023-04-01T00:26:08;94579.66;;;10.99;68.08
10652;BME280;5374;42.742;23.266;2023-04-01T00:28:55;94571.44;;;10.90;68.33
10652;BME280;5374;42.742;23.266;2023-04-01T00:31:42;94581.50;;;10.99;68.59
10652;BME280;5374;42.742;23.266;2023-04-01T00:34:29;94575.66;;;10.96;68.83
10652;BME280;5374;42.742;23.266;2023-04-01T00:37:18;94561.31;;;10.98;69.37
10652;BME280;5374;42.742;23.266;2023-04-01T00:40:07;94554.66;;;11.00;69.50
10652;BME280;5374;42.742;23.266;2023-04-01T00:43:10;94545.38;;;10.98;70.65
10652;BME280;5374;42.742;23.266;2023-04-01T00:45:58;94541.66;;;10.99;70.79
10652;BME280;5374;42.742;23.266;2023-04-01T00:48:47;94539.03;;;10.93;70.90
10652;BME280;5374;42.742;23.266;2023-04-01T00:51:37;94538.47;;;10.96;71.97
10652;BME280;5374;42.742;23.266;2023-04-01T00:54:28;94527.06;;;10.96;72.20
10652;BME280;5374;42.742;23.266;2023-04-01T00:57:19;94532.38;;;10.96;72.11
10652;BME280;5374;42.742;23.266;2023-04-01T01:00:11;94503.53;;;10.74;71.97
10652;BME280;5374;42.742;23.266;2023-04-01T01:03:00;94524.28;;;10.67;72.74
10652;BME280;5374;42.742;23.266;2023-04-01T01:06:04;94517.34;;;10.76;71.96
10652;BME280;5374;42.742;23.266;2023-04-01T01:09:07;94508.56;;;10.76;71.85
10652;BME280;5374;42.742;23.266;2023-04-01T01:12:06;94506.72;;;10.71;71.73
10652;BME280;5374;42.742;23.266;2023-04-01T01:15:00;94498.78;;;10.71;71.76
10652;BME280;5374;42.742;23.266;2023-04-01T01:17:55;94482.16;;;10.45;72.60
10652;BME280;5374;42.742;23.266;2023-04-01T01:21:04;94490.09;;;10.50;73.30
10652;BME280;5374;42.742;23.266;2023-04-01T01:24:09;94489.06;;;10.46;73.52
10652;BME280;5374;42.742;23.266;2023-04-01T01:27:03;94486.13;;;10.48;73.18
10652;BME280;5374;42.742;23.266;2023-04-01T01:30:25;94468.34;;;10.53;73.05
10652;BME280;5374;42.742;23.266;2023-04-01T01:33:25;94471.28;;;10.47;73.94
10652;BME280;5374;42.742;23.266;2023-04-01T01:36:19;94474.44;;;10.49;73.48
10652;BME280;5374;42.742;23.266;2023-04-01T01:39:09;94479.50;;;10.50;73.49
10652;BME280;5374;42.742;23.266;2023-04-01T01:42:00;94488.53;;;10.44;73.89
10652;BME280;5374;42.742;23.266;2023-04-01T01:44:48;94493.03;;;10.49;73.39
10652;BME280;5374;42.742;23.266;2023-04-01T01:47:37;94489.03;;;10.51;72.92
10652;BME280;5374;42.742;23.266;2023-04-01T01:50:25;94481.91;;;10.42;73.40
10652;BME280;5374;42.742;23.266;2023-04-01T01:53:15;94478.41;;;10.56;73.57
10652;BME280;5374;42.742;23.266;2023-04-01T01:56:02;94475.47;;;10.58;73.35
10652;BME280;5374;42.742;23.266;2023-04-01T01:58:52;94464.91;;;10.48;73.26
10652;BME280;5374;42.742;23.266;2023-04-01T02:01:48;94465.69;;;10.53;73.75
10652;BME280;5374;42.742;23.266;2023-04-01T02:04:37;94464.09;;;10.52;74.42
10652;BME280;5374;42.742;23.266;2023-04-01T02:07:31;94480.81;;;10.53;74.16
10652;BME280;5374;42.742;23.266;2023-04-01T02:10:22;94435.72;;;10.43;75.06
10652;BME280;5374;42.742;23.266;2023-04-01T02:13:16;94451.63;;;10.48;74.99
10652;BME280;5374;42.742;23.266;2023-04-01T02:16:10;94450.56;;;10.49;74.53
10652;BME280;5374;42.742;23.266;2023-04-01T02:18:59;94459.03;;;10.56;74.49
10652;BME280;5374;42.742;23.266;2023-04-01T02:21:49;94453.72;;;10.56;74.23
10652;BME280;5374;42.742;23.266;2023-04-01T02:24:40;94447.91;;;10.54;74.26
10652;BME280;5374;42.742;23.266;2023-04-01T02:27:30;94450.81;;;10.57;74.13
10652;BME280;5374;42.742;23.266;2023-04-01T02:30:18;94464.03;;;10.62;73.63
10652;BME280;5374;42.742;23.266;2023-04-01T02:33:05;94453.94;;;10.65;73.50
10652;BME280;5374;42.742;23.266;2023-04-01T02:35:53;94466.66;;;10.68;74.31
10652;BME280;5374;42.742;23.266;2023-04-01T02:38:41;94457.50;;;10.40;74.53
10652;BME280;5374;42.742;23.266;2023-04-01T02:41:30;94466.56;;;10.34;74.21
10652;BME280;5374;42.742;23.266;2023-04-01T02:44:18;94469.50;;;10.32;74.40
10652;BME280;5374;42.742;23.266;2023-04-01T02:47:06;94476.69;;;10.21;75.51
10652;BME280;5374;42.742;23.266;2023-04-01T02:49:53;94476.94;;;10.20;76.24
10652;BME280;5374;42.742;23.266;2023-04-01T02:52:43;94488.59;;;10.24;76.25
10652;BME280;5374;42.742;23.266;2023-04-01T02:55:30;94481.47;;;10.19;76.94
10652;BME280;5374;42.742;23.266;2023-04-01T02:58:18;94485.72;;;10.15;76.91
10652;BME280;5374;42.742;23.266;2023-04-01T03:01:07;94485.19;;;10.03;76.75
10652;BME280;5374;42.742;23.266;2023-04-01T03:03:55;94486.25;;;10.02;77.39
10652;BME280;5374;42.742;23.266;2023-04-01T03:06:42;94488.66;;;9.99;76.92
10652;BME280;5374;42.742;23.266;2023-04-01T03:09:29;94500.84;;;10.00;76.91
10652;BME280;5374;42.742;23.266;2023-04-01T03:12:16;94504.56;;;10.04;78.44
10652;BME280;5374;42.742;23.266;2023-04-01T03:15:06;94496.34;;;10.00;81.24
10652;BME280;5374;42.742;23.266;2023-04-01T03:17:55;94514.41;;;9.93;82.53
10652;BME280;5374;42.742;23.266;2023-04-01T03:20:42;94496.34;;;9.95;85.07
10652;BME280;5374;42.742;23.266;2023-04-01T03:23:29;94506.97;;;9.85;87.20
10652;BME280;5374;42.742;23.266;2023-04-01T03:26:16;94496.91;;;9.82;90.13
10652;BME280;5374;42.742;23.266;2023-04-01T03:29:04;94494.00;;;9.83;92.09
10652;BME280;5374;42.742;23.266;2023-04-01T03:31:51;94492.66;;;9.86;92.13
10652;BME280;5374;42.742;23.266;2023-04-01T03:34:39;94493.19;;;9.83;93.84
10652;BME280;5374;42.742;23.266;2023-04-01T03:37:26;94474.91;;;9.86;94.60
10652;BME280;5374;42.742;23.266;2023-04-01T03:40:13;94424.31;;;9.57;99.14
10652;BME280;5374;42.742;23.266;2023-04-01T03:43:01;94448.13;;;9.73;98.70
10652;BME280;5374;42.742;23.266;2023-04-01T03:45:51;94434.38;;;9.66;100.00
10652;BME280;5374;42.742;23.266;2023-04-01T03:48:38;94417.69;;;9.65;100.00
10652;BME280;5374;42.742;23.266;2023-04-01T03:51:27;94411.06;;;9.63;100.00
10652;BME280;5374;42.742;23.266;2023-04-01T03:54:14;94404.97;;;9.67;100.00
10652;BME280;5374;42.742;23.266;2023-04-01T03:57:01;94393.56;;;9.67;100.00
10652;BME280;5374;42.742;23.266;2023-04-01T03:59:48;94370.50;;;9.62;100.00
10652;BME280;5374;42.742;23.266;2023-04-01T04:02:35;94373.97;;;9.63;100.00
10652;BME280;5374;42.742;23.266;2023-04-01T04:05:23;94373.97;;;9.63;100.00
10652;BME280;5374;42.742;23.266;2023-04-01T04:08:12;94357.84;;;9.44;100.00
10652;BME280;5374;42.742;23.266;2023-04-01T04:10:59;94366.81;;;9.63;99.89
10652;BME280;5374;42.742;23.266;2023-04-01T04:13:46;94374.72;;;9.73;98.71
10652;BME280;5374;42.742;23.266;2023-04-01T04:16:34;94369.13;;;9.75;96.91
10652;BME280;5374;42.742;23.266;2023-04-01T04:19:22;94370.25;;;9.69;98.57
10652;BME280;5374;42.742;23.266;2023-04-01T04:22:09;94355.66;;;9.71;98.45
10652;BME280;5374;42.742;23.266;2023-04-01T04:24:58;94354.56;;;9.72;97.10
10652;BME280;5374;42.742;23.266;2023-04-01T04:27:45;94356.72;;;9.70;95.71
10652;BME280;5374;42.742;23.266;2023-04-01T04:30:32;94353.53;;;9.68;96.84
10652;BME280;5374;42.742;23.266;2023-04-01T04:33:19;94335.75;;;9.74;95.68
10652;BME280;5374;42.742;23.266;2023-04-01T04:36:07;94314.31;;;9.70;94.84
10652;BME280;5374;42.742;23.266;2023-04-01T04:38:54;94328.28;;;9.81;98.93
10652;BME280;5374;42.742;23.266;2023-04-01T04:41:45;94328.66;;;9.59;100.00
10652;BME280;5374;42.742;23.266;2023-04-01T04:44:32;94322.84;;;9.52;100.00
10652;BME280;5374;42.742;23.266;2023-04-01T04:47:19;94326.53;;;9.51;100.00
10652;BME280;5374;42.742;23.266;2023-04-01T04:50:07;94288.16;;;9.43;100.00
10652;BME280;5374;42.742;23.266;2023-04-01T04:52:55;94300.75;;;9.72;100.00
10652;BME280;5374;42.742;23.266;2023-04-01T04:55:43;94311.31;;;9.82;99.76
10652;BME280;5374;42.742;23.266;2023-04-01T04:58:32;94301.25;;;9.79;100.00
10652;BME280;5374;42.742;23.266;2023-04-01T05:01:19;94318.72;;;9.90;99.57
10652;BME280;5374;42.742;23.266;2023-04-01T05:04:06;94306.19;;;10.01;100.00
10652;BME280;5374;42.742;23.266;2023-04-01T05:06:53;94278.41;;;9.93;100.00
10652;BME280;5374;42.742;23.266;2023-04-01T05:09:40;94280.28;;;9.87;100.00
10652;BME280;5374;42.742;23.266;2023-04-01T05:12:27;94286.28;;;10.03;100.00
10652;BME280;5374;42.742;23.266;2023-04-01T05:15:16;94271.88;;;10.19;99.13
10652;BME280;5374;42.742;23.266;2023-04-01T05:18:07;94273.75;;;10.19;97.77
10652;BME280;5374;42.742;23.266;2023-04-01T05:20:54;94265.47;;;10.31;97.11
10652;BME280;5374;42.742;23.266;2023-04-01T05:23:42;94237.34;;;10.30;94.65
10652;BME280;5374;42.742;23.266;2023-04-01T05:26:29;94276.31;;;12.49;83.35
10652;BME280;5374;42.742;23.266;2023-04-01T05:29:18;94285.47;;;16.48;61.55
10652;BME280;5374;42.742;23.266;2023-04-01T05:32:07;94281.22;;;18.00;55.29
10652;BME280;5374;42.742;23.266;2023-04-01T05:34:56;94270.41;;;22.30;45.18
10652;BME280;5374;42.742;23.266;2023-04-01T05:37:44;94264.72;;;26.10;36.18
10652;BME280;5374;42.742;23.266;2023-04-01T05:40:31;94274.00;;;29.32;30.36
10652;BME280;5374;42.742;23.266;2023-04-01T05:43:21;94272.19;;;31.82;27.08
10652;BME280;5374;42.742;23.266;2023-04-01T05:46:08;94261.19;;;33.62;23.52
10652;BME280;5374;42.742;23.266;2023-04-01T05:48:56;94274.81;;;35.15;21.63
10652;BME280;5374;42.742;23.266;2023-04-01T05:51:46;94268.31;;;36.30;20.57
10652;BME280;5374;42.742;23.266;2023-04-01T05:54:33;94241.00;;;37.36;19.27
10652;BME280;5374;42.742;23.266;2023-04-01T05:57:20;94263.63;;;38.68;18.19
10652;BME280;5374;42.742;23.266;2023-04-01T06:00:08;94264.69;;;39.98;17.06
10652;BME280;5374;42.742;23.266;2023-04-01T06:02:58;94263.34;;;40.59;16.50
10652;BME280;5374;42.742;23.266;2023-04-01T06:05:46;94260.00;;;40.46;15.86
10652;BME280;5374;42.742;23.266;2023-04-01T06:08:34;94268.63;;;39.46;16.47
10652;BME280;5374;42.742;23.266;2023-04-01T06:11:31;94247.78;;;37.97;18.08
10652;BME280;5374;42.742;23.266;2023-04-01T06:14:29;94251.47;;;35.33;19.42
10652;BME280;5374;42.742;23.266;2023-04-01T06:17:41;94237.34;;;32.03;21.93
10652;BME280;5374;42.742;23.266;2023-04-01T06:20:37;94244.38;;;29.89;24.30
10652;BME280;5374;42.742;23.266;2023-04-01T06:23:37;94248.50;;;28.22;25.88
10652;BME280;5374;42.742;23.266;2023-04-01T06:26:30;94248.00;;;26.70;27.50
10652;BME280;5374;42.742;23.266;2023-04-01T06:29:57;94237.19;;;25.00;29.63
10652;BME280;5374;42.742;23.266;2023-04-01T06:32:57;94240.66;;;23.46;31.83
10652;BME280;5374;42.742;23.266;2023-04-01T06:36:05;94236.50;;;22.71;33.51
10652;BME280;5374;42.742;23.266;2023-04-01T06:39:22;94241.91;;;22.01;35.29
10652;BME280;5374;42.742;23.266;2023-04-01T06:42:37;94230.84;;;21.43;34.71
10652;BME280;5374;42.742;23.266;2023-04-01T06:45:36;94216.78;;;20.94;35.26
10652;BME280;5374;42.742;23.266;2023-04-01T06:48:38;94230.41;;;19.11;38.67
10652;BME280;5374;42.742;23.266;2023-04-01T06:51:36;94205.72;;;18.76;39.28
10652;BME280;5374;42.742;23.266;2023-04-01T06:54:31;94210.56;;;18.29;40.29
10652;BME280;5374;42.742;23.266;2023-04-01T06:57:23;94216.44;;;18.02;42.34
10652;BME280;5374;42.742;23.266;2023-04-01T07:00:17;94198.31;;;17.61;42.98
10652;BME280;5374;42.742;23.266;2023-04-01T07:03:13;94216.03;;;17.53;44.01
10652;BME280;5374;42.742;23.266;2023-04-01T07:06:04;94206.59;;;17.47;44.27
10652;BME280;5374;42.742;23.266;2023-04-01T07:08:53;94190.31;;;17.14;45.48
10652;BME280;5374;42.742;23.266;2023-04-01T07:11:43;94200.94;;;17.40;45.56
10652;BME280;5374;42.742;23.266;2023-04-01T07:14:33;94200.09;;;17.48;44.76
10652;BME280;5374;42.742;23.266;2023-04-01T07:17:23;94204.19;;;17.54;44.69
10652;BME280;5374;42.742;23.266;2023-04-01T07:20:17;94210.38;;;17.46;44.03
10652;BME280;5374;42.742;23.266;2023-04-01T07:23:11;94202.56;;;17.24;44.52
10652;BME280;5374;42.742;23.266;2023-04-01T07:26:08;94220.16;;;17.13;45.65
10652;BME280;5374;42.742;23.266;2023-04-01T07:28:59;94209.44;;;17.04;47.04
10652;BME280;5374;42.742;23.266;2023-04-01T07:31:58;94209.59;;;17.07;48.61
10652;BME280;5374;42.742;23.266;2023-04-01T07:35:03;94200.59;;;17.03;48.30
10652;BME280;5374;42.742;23.266;2023-04-01T07:38:03;94200.00;;;16.89;47.52
10652;BME280;5374;42.742;23.266;2023-04-01T07:40:57;94202.84;;;16.84;48.22
10652;BME280;5374;42.742;23.266;2023-04-01T07:43:57;94211.53;;;16.81;49.30
10652;BME280;5374;42.742;23.266;2023-04-01T07:47:14;94206.81;;;16.78;48.27
10652;BME280;5374;42.742;23.266;2023-04-01T07:50:13;94194.34;;;16.73;48.43
10652;BME280;5374;42.742;23.266;2023-04-01T07:53:14;94195.47;;;16.64;48.78
10652;BME280;5374;42.742;23.266;2023-04-01T07:56:06;94201.28;;;16.57;49.96
10652;BME280;5374;42.742;23.266;2023-04-01T07:59:01;94199.09;;;16.42;50.01
10652;BME280;5374;42.742;23.266;2023-04-01T08:01:59;94177.19;;;16.31;51.66
10652;BME280;5374;42.742;23.266;2023-04-01T08:04:57;94180.97;;;16.30;52.51
10652;BME280;5374;42.742;23.266;2023-04-01T08:07:53;94169.97;;;16.23;53.58
10652;BME280;5374;42.742;23.266;2023-04-01T08:10:49;94145.53;;;16.07;53.73
10652;BME280;5374;42.742;23.266;2023-04-01T08:13:44;94152.00;;;16.15;54.97
10652;BME280;5374;42.742;23.266;2023-04-01T08:16:38;94122.41;;;16.03;55.05
10652;BME280;5374;42.742;23.266;2023-04-01T08:19:34;94143.66;;;16.17;52.60
10652;BME280;5374;42.742;23.266;2023-04-01T08:22:29;94134.81;;;16.16;52.09
10652;BME280;5374;42.742;23.266;2023-04-01T08:25:20;94142.06;;;16.24;53.00
10652;BME280;5374;42.742;23.266;2023-04-01T08:28:15;94125.50;;;16.39;53.28
10652;BME280;5374;42.742;23.266;2023-04-01T08:31:05;94112.69;;;16.71;51.56
10652;BME280;5374;42.742;23.266;2023-04-01T08:33:56;94114.16;;;16.98;50.37
10652;BME280;5374;42.742;23.266;2023-04-01T08:36:47;94103.31;;;17.24;50.19
10652;BME280;5374;42.742;23.266;2023-04-01T08:39:43;94089.06;;;17.61;50.34
10652;BME280;5374;42.742;23.266;2023-04-01T08:42:50;94081.22;;;17.98;48.05
10652;BME280;5374;42.742;23.266;2023-04-01T08:46:06;94067.56;;;18.69;44.91
10652;BME280;5374;42.742;23.266;2023-04-01T08:49:16;94076.47;;;19.42;43.71
10652;BME280;5374;42.742;23.266;2023-04-01T08:52:25;94079.13;;;20.07;43.89
10652;BME280;5374;42.742;23.266;2023-04-01T08:55:25;94068.66;;;20.45;43.58
10652;BME280;5374;42.742;23.266;2023-04-01T09:01:59;94064.44;;;21.07;41.41
10652;BME280;5374;42.742;23.266;2023-04-01T09:08:15;94054.09;;;20.06;37.77
10652;BME280;5374;42.742;23.266;2023-04-01T09:11:09;94054.28;;;19.86;39.15
10652;BME280;5374;42.742;23.266;2023-04-01T09:21:17;94048.06;;;19.33;39.98
10652;BME280;5374;42.742;23.266;2023-04-01T09:24:24;94048.63;;;19.26;40.82
10652;BME280;5374;42.742;23.266;2023-04-01T09:27:25;94038.69;;;19.15;40.98
10652;BME280;5374;42.742;23.266;2023-04-01T09:30:32;94041.34;;;19.02;40.53
10652;BME280;5374;42.742;23.266;2023-04-01T09:33:49;94015.69;;;18.81;40.21
10652;BME280;5374;42.742;23.266;2023-04-01T09:36:45;94015.56;;;18.77;40.00
10652;BME280;5374;42.742;23.266;2023-04-01T09:39:37;94019.06;;;18.90;40.50
10652;BME280;5374;42.742;23.266;2023-04-01T09:42:39;94005.47;;;18.98;40.08
10652;BME280;5374;42.742;23.266;2023-04-01T09:45:41;93990.91;;;18.99;40.38
10652;BME280;5374;42.742;23.266;2023-04-01T09:48:43;94000.44;;;19.09;40.40
10652;BME280;5374;42.742;23.266;2023-04-01T09:51:38;93978.56;;;18.98;39.86
10652;BME280;5374;42.742;23.266;2023-04-01T09:54:49;93983.63;;;19.12;40.39
10652;BME280;5374;42.742;23.266;2023-04-01T09:58:11;93982.31;;;18.94;39.58
10652;BME280;5374;42.742;23.266;2023-04-01T10:01:22;93988.22;;;19.11;39.60
10652;BME280;5374;42.742;23.266;2023-04-01T10:08:33;93980.09;;;19.36;39.36
10652;BME280;5374;42.742;23.266;2023-04-01T10:18:56;93958.75;;;19.43;40.53
10652;BME280;5374;42.742;23.266;2023-04-01T10:22:16;93945.56;;;19.26;38.95
10652;BME280;5374;42.742;23.266;2023-04-01T10:25:26;93939.75;;;19.24;38.18
10652;BME280;5374;42.742;23.266;2023-04-01T10:35:22;93918.22;;;19.24;36.31
10652;BME280;5374;42.742;23.266;2023-04-01T10:38:46;93910.81;;;19.21;36.25
10652;BME280;5374;42.742;23.266;2023-04-01T10:42:09;93913.78;;;19.03;36.82
10652;BME280;5374;42.742;23.266;2023-04-01T10:45:36;93894.91;;;18.75;38.58
10652;BME280;5374;42.742;23.266;2023-04-01T10:48:51;93890.78;;;18.29;39.90
10652;BME280;5374;42.742;23.266;2023-04-01T10:52:12;93894.78;;;18.23;40.70
10652;BME280;5374;42.742;23.266;2023-04-01T10:55:19;93904.59;;;17.95;39.91
10652;BME280;5374;42.742;23.266;2023-04-01T11:02:07;93896.63;;;17.86;41.60
10652;BME280;5374;42.742;23.266;2023-04-01T11:12:52;93890.00;;;17.71;41.99
10652;BME280;5374;42.742;23.266;2023-04-01T11:16:11;93894.31;;;17.64;41.62
10652;BME280;5374;42.742;23.266;2023-04-01T11:19:26;93887.69;;;17.49;42.97
10652;BME280;5374;42.742;23.266;2023-04-01T11:22:40;93910.31;;;17.60;43.08
10652;BME280;5374;42.742;23.266;2023-04-01T11:32:25;93978.72;;;17.54;47.10
10652;BME280;5374;42.742;23.266;2023-04-01T11:35:47;94018.19;;;17.33;49.54
10652;BME280;5374;42.742;23.266;2023-04-01T11:38:53;94051.50;;;17.02;56.72
10652;BME280;5374;42.742;23.266;2023-04-01T11:41:50;94087.47;;;16.55;62.17
10652;BME280;5374;42.742;23.266;2023-04-01T11:44:43;94134.22;;;16.02;68.90
10652;BME280;5374;42.742;23.266;2023-04-01T11:47:49;94123.56;;;15.45;76.29
10652;BME280;5374;42.742;23.266;2023-04-01T11:50:57;94133.72;;;15.17;81.04
10652;BME280;5374;42.742;23.266;2023-04-01T11:53:56;94139.44;;;14.93;84.65
10652;BME280;5374;42.742;23.266;2023-04-01T11:57:02;94138.66;;;14.84;87.24
10652;BME280;5374;42.742;23.266;2023-04-01T12:00:02;94150.97;;;14.63;91.67
10652;BME280;5374;42.742;23.266;2023-04-01T12:03:18;94150.41;;;14.30;91.88
10652;BME280;5374;42.742;23.266;2023-04-01T12:06:12;94157.19;;;14.14;95.10
10652;BME280;5374;42.742;23.266;2023-04-01T12:09:07;94140.47;;;13.99;99.39
10652;BME280;5374;42.742;23.266;2023-04-01T12:12:08;94126.75;;;13.92;100.00
10652;BME280;5374;42.742;23.266;2023-04-01T12:15:15;94144.03;;;13.95;100.00
10652;BME280;5374;42.742;23.266;2023-04-01T12:18:13;94136.34;;;13.80;100.00
10652;BME280;5374;42.742;23.266;2023-04-01T12:21:12;94129.22;;;13.89;100.00
10652;BME280;5374;42.742;23.266;2023-04-01T12:27:35;94139.09;;;13.88;100.00
10652;BME280;5374;42.742;23.266;2023-04-01T12:30:44;94151.84;;;13.91;100.00
10652;BME280;5374;42.742;23.266;2023-04-01T12:33:57;94138.56;;;13.78;100.00
10652;BME280;5374;42.742;23.266;2023-04-01T12:36:54;94139.47;;;13.73;100.00
10652;BME280;5374;42.742;23.266;2023-04-01T12:40:02;94134.13;;;13.73;100.00
10652;BME280;5374;42.742;23.266;2023-04-01T12:43:02;94146.06;;;13.76;100.00
10652;BME280;5374;42.742;23.266;2023-04-01T12:46:03;94144.78;;;13.73;100.00
10652;BME280;5374;42.742;23.266;2023-04-01T12:49:12;94126.81;;;13.65;100.00
10652;BME280;5374;42.742;23.266;2023-04-01T12:52:09;94099.28;;;13.78;100.00
10652;BME280;5374;42.742;23.266;2023-04-01T13:02:02;94097.19;;;13.66;100.00
10652;BME280;5374;42.742;23.266;2023-04-01T13:05:09;94115.94;;;13.75;100.00
10652;BME280;5374;42.742;23.266;2023-04-01T13:08:11;94091.75;;;13.72;100.00
10652;BME280;5374;42.742;23.266;2023-04-01T13:11:09;94091.47;;;13.82;100.00
10652;BME280;5374;42.742;23.266;2023-04-01T13:14:18;94081.31;;;13.84;100.00
10652;BME280;5374;42.742;23.266;2023-04-01T13:17:15;94059.63;;;13.77;100.00
10652;BME280;5374;42.742;23.266;2023-04-01T13:20:14;94074.63;;;14.17;100.00
10652;BME280;5374;42.742;23.266;2023-04-01T13:23:12;94070.56;;;14.42;100.00
10652;BME280;5374;42.742;23.266;2023-04-01T13:26:08;94066.56;;;14.70;100.00
10652;BME280;5374;42.742;23.266;2023-04-01T13:29:04;94055.63;;;14.81;100.00
10652;BME280;5374;42.742;23.266;2023-04-01T13:32:03;94037.13;;;15.01;100.00
10652;BME280;5374;42.742;23.266;2023-04-01T13:35:03;94037.34;;;15.31;100.00
10652;BME280;5374;42.742;23.266;2023-04-01T13:38:03;94030.28;;;15.61;97.30
10652;BME280;5374;42.742;23.266;2023-04-01T13:41:01;94002.75;;;15.69;89.19
10652;BME280;5374;42.742;23.266;2023-04-01T13:44:00;93989.50;;;15.55;79.14
10652;BME280;5374;42.742;23.266;2023-04-01T13:46:59;94011.56;;;15.61;76.43
10652;BME280;5374;42.742;23.266;2023-04-01T13:56:34;93998.03;;;15.75;71.76
10652;BME280;5374;42.742;23.266;2023-04-01T13:59:47;93969.06;;;15.77;74.52
10652;BME280;5374;42.742;23.266;2023-04-01T14:06:14;93985.00;;;16.11;73.34
10652;BME280;5374;42.742;23.266;2023-04-01T14:09:39;93995.56;;;16.16;73.44
10652;BME280;5374;42.742;23.266;2023-04-01T14:12:38;93986.63;;;16.03;68.63
10652;BME280;5374;42.742;23.266;2023-04-01T14:15:41;93973.41;;;15.90;71.74
10652;BME280;5374;42.742;23.266;2023-04-01T14:18:47;93983.50;;;15.84;70.43
10652;BME280;5374;42.742;23.266;2023-04-01T14:21:43;93969.84;;;15.68;70.83
10652;BME280;5374;42.742;23.266;2023-04-01T14:25:04;93972.50;;;15.43;69.94
10652;BME280;5374;42.742;23.266;2023-04-01T14:28:11;93952.38;;;15.45;74.34
10652;BME280;5374;42.742;23.266;2023-04-01T14:31:18;93933.63;;;15.36;74.75
10652;BME280;5374;42.742;23.266;2023-04-01T14:34:19;93928.78;;;15.30;74.75
10652;BME280;5374;42.742;23.266;2023-04-01T14:37:20;93927.53;;;15.27;75.61
10652;BME280;5374;42.742;23.266;2023-04-01T14:40:35;93928.16;;;15.33;77.27
10652;BME280;5374;42.742;23.266;2023-04-01T14:43:54;93937.59;;;15.22;75.17
10652;BME280;5374;42.742;23.266;2023-04-01T14:47:09;93941.84;;;15.23;77.78
10652;BME280;5374;42.742;23.266;2023-04-01T14:50:09;93924.38;;;15.17;77.28
10652;BME280;5374;42.742;23.266;2023-04-01T14:53:11;93930.03;;;15.24;76.09
10652;BME280;5374;42.742;23.266;2023-04-01T14:56:02;93939.94;;;15.15;76.47
10652;BME280;5374;42.742;23.266;2023-04-01T14:58:57;93936.78;;;14.95;77.69
10652;BME280;5374;42.742;23.266;2023-04-01T15:01:50;93954.25;;;14.93;76.52
10652;BME280;5374;42.742;23.266;2023-04-01T15:04:58;93944.31;;;14.76;76.36
10652;BME280;5374;42.742;23.266;2023-04-01T15:08:01;93946.66;;;14.69;76.52
10652;BME280;5374;42.742;23.266;2023-04-01T15:11:06;93941.78;;;14.62;77.71
10652;BME280;5374;42.742;23.266;2023-04-01T15:14:14;93944.25;;;14.42;78.36
10652;BME280;5374;42.742;23.266;2023-04-01T15:17:14;93961.06;;;14.51;78.24
10652;BME280;5374;42.742;23.266;2023-04-01T15:20:20;93960.59;;;14.49;79.24
10652;BME280;5374;42.742;23.266;2023-04-01T15:23:20;93969.69;;;14.48;78.76
10652;BME280;5374;42.742;23.266;2023-04-01T15:26:22;93972.25;;;14.53;77.80
10652;BME280;5374;42.742;23.266;2023-04-01T15:29:28;93969.75;;;14.56;77.47
10652;BME280;5374;42.742;23.266;2023-04-01T15:32:24;93970.38;;;14.62;78.02
10652;BME280;5374;42.742;23.266;2023-04-01T15:35:25;93963.94;;;14.63;77.26
10652;BME280;5374;42.742;23.266;2023-04-01T15:38:22;93967.53;;;14.58;79.58
10652;BME280;5374;42.742;23.266;2023-04-01T15:41:16;93993.78;;;14.56;80.33
10652;BME280;5374;42.742;23.266;2023-04-01T15:44:27;94100.44;;;14.30;85.40
10652;BME280;5374;42.742;23.266;2023-04-01T15:47:33;94153.09;;;13.72;71.34
10652;BME280;5374;42.742;23.266;2023-04-01T15:54:06;94172.63;;;12.57;79.71
10652;BME280;5374;42.742;23.266;2023-04-01T15:57:26;94166.63;;;11.82;89.53
10652;BME280;5374;42.742;23.266;2023-04-01T16:00:23;94185.09;;;11.73;100.00
10652;BME280;5374;42.742;23.266;2023-04-01T16:03:30;94200.63;;;11.42;100.00
10652;BME280;5374;42.742;23.266;2023-04-01T16:06:38;94182.34;;;10.93;100.00
10652;BME280;5374;42.742;23.266;2023-04-01T16:13:17;94217.59;;;10.75;100.00
10652;BME280;5374;42.742;23.266;2023-04-01T16:16:16;94215.41;;;10.53;100.00
10652;BME280;5374;42.742;23.266;2023-04-01T16:19:19;94235.28;;;10.55;100.00
10652;BME280;5374;42.742;23.266;2023-04-01T16:22:12;94241.19;;;10.47;100.00
10652;BME280;5374;42.742;23.266;2023-04-01T16:25:20;94236.97;;;10.41;100.00
10652;BME280;5374;42.742;23.266;2023-04-01T16:28:21;94238.91;;;10.36;100.00
10652;BME280;5374;42.742;23.266;2023-04-01T16:31:15;94249.78;;;10.34;100.00
10652;BME280;5374;42.742;23.266;2023-04-01T16:34:16;94259.63;;;10.28;100.00
10652;BME280;5374;42.742;23.266;2023-04-01T16:37:07;94254.34;;;10.23;100.00
10652;BME280;5374;42.742;23.266;2023-04-01T16:40:11;94260.72;;;10.17;100.00
10652;BME280;5374;42.742;23.266;2023-04-01T16:43:10;94264.59;;;9.96;100.00
10652;BME280;5374;42.742;23.266;2023-04-01T16:46:33;94283.94;;;9.97;100.00
10652;BME280;5374;42.742;23.266;2023-04-01T16:49:29;94267.03;;;9.87;100.00
10652;BME280;5374;42.742;23.266;2023-04-01T16:52:32;94295.06;;;9.99;100.00
10652;BME280;5374;42.742;23.266;2023-04-01T16:55:22;94288.50;;;9.86;100.00